Time;durP1;ratioP1;P1;durP2;ratioP2;P2;SDS_P1;SDS_P2;PMS_P1;PMS_P2;Temp;Humidity;BMP_temperature;BMP_pressure;BME280_temperature;BME280_humidity;BME280_pressure;Samples;Min_cycle;Max_cycle;Signal;HPM_P1;HPM_P2
2024/03/09 00:00:26;;;;;;;17.65;8.32;;;4.80;99.90;;;;;;5030570;28;20530;-54
2024/03/09 00:02:53;;;;;;;16.17;7.97;;;4.80;99.90;;;;;;5023514;28;20025;-55
2024/03/09 00:05:20;;;;;;;18.42;8.40;;;4.70;99.90;;;;;;5023259;28;20048;-52
2024/03/09 00:07:47;;;;;;;15.23;7.55;;;4.70;99.90;;;;;;5020270;28;20553;-55
2024/03/09 00:10:15;;;;;;;13.40;7.05;;;4.70;99.90;;;;;;5019897;28;20057;-55
2024/03/09 00:12:43;;;;;;;16.17;8.02;;;4.70;99.90;;;;;;5020842;28;20057;-56
2024/03/09 00:15:12;;;;;;;14.63;7.60;;;4.70;99.90;;;;;;5021097;28;20029;-54
2024/03/09 00:17:43;;;;;;;15.73;7.80;;;4.70;99.90;;;;;;5022107;28;20113;-55
2024/03/09 00:20:12;;;;;;;19.15;8.52;;;4.70;99.90;;;;;;5020875;28;20029;-56
2024/03/09 00:22:43;;;;;;;17.27;8.82;;;4.70;99.90;;;;;;5021301;28;20601;-52
2024/03/09 00:25:09;;;;;;;15.07;7.88;;;4.60;99.90;;;;;;5023675;28;20104;-52
2024/03/09 00:27:35;;;;;;;15.20;8.13;;;4.60;99.90;;;;;;5020657;28;20025;-54
2024/03/09 00:30:01;;;;;;;16.38;7.53;;;4.60;99.90;;;;;;5020705;28;20037;-53
2024/03/09 00:32:27;;;;;;;16.27;7.70;;;4.60;99.90;;;;;;5030874;28;20459;-53
2024/03/09 00:34:53;;;;;;;17.58;8.60;;;4.60;99.90;;;;;;5028619;28;20084;-52
2024/03/09 00:37:19;;;;;;;14.93;7.55;;;4.60;99.90;;;;;;5030526;28;20032;-53
2024/03/09 00:39:45;;;;;;;19.52;8.45;;;4.60;99.90;;;;;;5026024;28;20040;-52
2024/03/09 00:42:14;;;;;;;16.08;7.88;;;4.70;99.90;;;;;;5032026;28;20107;-51
2024/03/09 00:44:41;;;;;;;14.95;8.15;;;4.60;99.90;;;;;;5030148;28;20032;-53
2024/03/09 00:47:07;;;;;;;15.85;8.13;;;4.70;99.90;;;;;;5029308;28;20075;-52
2024/03/09 00:49:34;;;;;;;15.60;7.75;;;4.70;99.90;;;;;;5033252;28;20112;-52
2024/03/09 00:52:00;;;;;;;15.95;8.15;;;4.70;99.90;;;;;;5030595;28;20044;-53
2024/03/09 00:54:26;;;;;;;19.40;9.18;;;4.70;99.90;;;;;;5030630;28;20036;-51
2024/03/09 00:56:52;;;;;;;18.58;8.52;;;4.80;99.90;;;;;;5030396;28;20112;-54
2024/03/09 00:59:19;;;;;;;17.23;7.35;;;4.90;99.90;;;;;;5030704;28;20033;-55
2024/03/09 01:01:45;;;;;;;19.83;7.28;;;4.90;99.90;;;;;;5030770;28;20076;-56
2024/03/09 01:04:10;;;;;;;19.38;8.68;;;4.90;99.90;;;;;;5028234;28;20029;-55
2024/03/09 01:06:39;;;;;;;19.90;8.43;;;4.90;99.90;;;;;;5030877;28;20109;-55
2024/03/09 01:09:04;;;;;;;17.60;8.35;;;4.90;99.90;;;;;;5028352;28;20683;-52
2024/03/09 01:11:30;;;;;;;15.40;8.20;;;4.90;99.90;;;;;;5033928;28;20021;-52
2024/03/09 01:13:56;;;;;;;18.67;8.52;;;4.90;99.90;;;;;;5030279;28;20095;-52
2024/03/09 01:16:22;;;;;;;12.32;7.05;;;5.00;99.90;;;;;;5023765;28;20068;-52
2024/03/09 01:18:49;;;;;;;17.50;7.72;;;5.00;99.90;;;;;;5028564;28;20491;-55
2024/03/09 01:21:14;;;;;;;19.80;7.75;;;5.10;99.90;;;;;;5028707;28;20514;-53
2024/03/09 01:23:40;;;;;;;17.27;8.98;;;5.10;99.90;;;;;;5032390;28;20041;-52
2024/03/09 01:26:09;;;;;;;14.95;7.68;;;5.10;99.90;;;;;;5026010;28;20034;-54
2024/03/09 01:28:35;;;;;;;14.05;7.53;;;5.10;99.90;;;;;;5029555;28;20475;-52
2024/03/09 01:31:02;;;;;;;16.17;8.13;;;5.10;99.90;;;;;;5029274;28;20436;-52
2024/03/09 01:33:28;;;;;;;18.65;8.05;;;5.00;99.90;;;;;;5027699;28;20045;-53
2024/03/09 01:35:53;;;;;;;18.38;9.20;;;5.00;99.90;;;;;;5029423;28;20408;-54
2024/03/09 01:38:20;;;;;;;15.85;8.02;;;5.10;99.90;;;;;;5027538;28;20041;-55
2024/03/09 01:40:47;;;;;;;18.55;8.43;;;5.10;99.90;;;;;;5028077;28;20119;-52
2024/03/09 01:43:16;;;;;;;13.82;7.20;;;5.10;99.90;;;;;;5028688;28;20117;-54
2024/03/09 01:45:44;;;;;;;16.15;8.35;;;5.10;99.90;;;;;;5027151;28;20021;-54
2024/03/09 01:48:14;;;;;;;19.52;8.85;;;5.10;99.90;;;;;;5029535;28;20025;-52
2024/03/09 01:50:40;;;;;;;17.42;8.77;;;5.00;99.90;;;;;;5028256;28;20037;-53
2024/03/09 01:53:08;;;;;;;15.93;8.13;;;5.10;99.90;;;;;;5024915;28;20021;-55
2024/03/09 01:55:36;;;;;;;19.27;8.70;;;5.10;99.90;;;;;;5028789;28;20123;-53
2024/03/09 01:58:06;;;;;;;18.15;8.32;;;5.00;99.90;;;;;;5028832;28;20053;-55
2024/03/09 02:00:34;;;;;;;16.73;8.07;;;5.00;99.90;;;;;;5028042;28;20034;-54
2024/03/09 02:03:01;;;;;;;17.40;8.52;;;5.00;99.90;;;;;;5026268;28;20384;-56
2024/03/09 02:05:28;;;;;;;18.60;8.20;;;5.00;99.90;;;;;;5030391;28;20475;-52
2024/03/09 02:07:54;;;;;;;16.90;8.80;;;4.90;99.90;;;;;;5029174;28;20045;-55
2024/03/09 02:10:19;;;;;;;17.88;9.15;;;4.80;99.90;;;;;;5025591;28;20026;-55
2024/03/09 02:12:45;;;;;;;19.88;8.73;;;4.80;99.90;;;;;;5028586;28;20529;-53
2024/03/09 02:15:17;;;;;;;19.00;9.32;;;4.90;99.90;;;;;;5025916;28;20044;-55
2024/03/09 02:17:43;;;;;;;16.35;8.02;;;4.90;99.90;;;;;;5029772;28;20402;-54
2024/03/09 02:20:10;;;;;;;21.17;10.13;;;4.90;99.90;;;;;;5034354;28;20030;-52
2024/03/09 02:22:40;;;;;;;20.40;9.60;;;4.90;99.90;;;;;;5024522;28;20029;-51
2024/03/09 02:25:07;;;;;;;17.50;8.25;;;4.90;99.90;;;;;;5029551;28;20029;-56
2024/03/09 02:27:33;;;;;;;15.15;8.48;;;4.90;99.90;;;;;;5028330;28;20017;-54
2024/03/09 02:29:58;;;;;;;17.92;8.57;;;4.90;99.90;;;;;;5031916;28;20379;-53
2024/03/09 02:32:24;;;;;;;18.27;8.25;;;4.90;99.90;;;;;;5025341;28;20478;-52
2024/03/09 02:34:49;;;;;;;18.23;8.25;;;4.90;99.90;;;;;;5027725;28;20788;-52
2024/03/09 02:37:18;;;;;;;20.20;8.68;;;4.90;99.90;;;;;;5027407;28;20552;-55
2024/03/09 02:39:44;;;;;;;20.55;9.65;;;4.90;99.90;;;;;;5029118;28;20045;-54
2024/03/09 02:42:10;;;;;;;15.82;8.93;;;4.90;99.90;;;;;;5027401;28;20044;-53
2024/03/09 02:44:38;;;;;;;15.05;7.68;;;4.90;99.90;;;;;;5027928;28;20029;-55
2024/03/09 02:47:05;;;;;;;19.38;9.10;;;4.90;99.90;;;;;;5028478;28;20048;-52
2024/03/09 02:49:30;;;;;;;18.90;9.25;;;4.90;99.90;;;;;;5027874;28;20390;-52
2024/03/09 02:51:56;;;;;;;16.08;8.77;;;4.90;99.90;;;;;;5027763;28;20030;-52
2024/03/09 02:54:23;;;;;;;19.45;8.48;;;4.80;99.90;;;;;;5029189;28;20037;-56
2024/03/09 02:56:49;;;;;;;16.13;8.18;;;4.80;99.90;;;;;;5029110;28;20045;-55
2024/03/09 02:59:16;;;;;;;20.38;9.13;;;4.80;99.90;;;;;;5027361;28;20530;-51
2024/03/09 03:01:42;;;;;;;18.67;8.65;;;4.80;99.90;;;;;;5028587;28;20033;-54
2024/03/09 03:04:07;;;;;;;20.35;8.52;;;4.80;99.90;;;;;;5026644;28;20778;-56
2024/03/09 03:06:33;;;;;;;19.48;8.30;;;4.80;99.90;;;;;;5029391;28;20151;-55
2024/03/09 03:09:10;;;;;;;18.60;8.50;;;4.70;99.90;;;;;;5029645;28;20056;-55
2024/03/09 03:11:36;;;;;;;15.43;7.75;;;4.70;99.90;;;;;;5027615;28;20483;-55
2024/03/09 03:14:03;;;;;;;17.00;8.18;;;4.70;99.90;;;;;;5034798;28;20036;-52
2024/03/09 03:16:31;;;;;;;18.45;8.40;;;4.70;99.90;;;;;;5032573;28;20048;-55
2024/03/09 03:19:00;;;;;;;18.75;9.02;;;4.70;99.90;;;;;;5030630;28;20084;-52
2024/03/09 03:21:26;;;;;;;17.48;9.27;;;4.60;99.90;;;;;;5032484;28;20021;-51
2024/03/09 03:23:53;;;;;;;17.08;8.27;;;4.60;99.90;;;;;;5032765;28;20033;-55
2024/03/09 03:26:19;;;;;;;19.02;8.60;;;4.60;99.90;;;;;;5032939;28;20013;-52
2024/03/09 03:28:47;;;;;;;18.45;9.13;;;4.50;99.90;;;;;;5033381;28;20088;-56
2024/03/09 03:31:17;;;;;;;18.88;9.18;;;4.50;99.90;;;;;;5032364;28;20033;-56
2024/03/09 03:33:44;;;;;;;16.25;8.98;;;4.40;99.90;;;;;;5030428;28;20040;-55
2024/03/09 03:36:13;;;;;;;19.05;9.45;;;4.40;99.90;;;;;;5032895;28;20025;-52
2024/03/09 03:38:41;;;;;;;19.80;9.30;;;4.40;99.90;;;;;;5029968;28;20167;-55
2024/03/09 03:41:09;;;;;;;20.73;8.75;;;4.40;99.90;;;;;;5032327;28;20037;-54
2024/03/09 03:43:35;;;;;;;17.90;8.82;;;4.40;99.90;;;;;;5031868;28;20053;-52
2024/03/09 03:46:02;;;;;;;17.95;9.50;;;4.40;99.90;;;;;;5032855;28;20038;-51
2024/03/09 03:48:29;;;;;;;18.50;8.90;;;4.40;99.90;;;;;;5032961;28;20029;-53
2024/03/09 03:50:55;;;;;;;17.63;9.30;;;4.40;99.90;;;;;;5030301;28;20129;-52
2024/03/09 03:53:20;;;;;;;17.00;8.90;;;4.40;99.90;;;;;;5032730;28;20022;-55
2024/03/09 03:55:47;;;;;;;19.08;9.98;;;4.40;99.90;;;;;;5032705;28;20537;-54
2024/03/09 03:58:15;;;;;;;18.02;9.10;;;4.40;99.90;;;;;;5029257;28;20099;-55
2024/03/09 04:00:41;;;;;;;17.98;9.27;;;4.40;99.90;;;;;;5030008;28;20463;-55
2024/03/09 04:03:07;;;;;;;22.13;8.90;;;4.40;99.90;;;;;;5030113;28;20029;-55
2024/03/09 04:05:33;;;;;;;19.33;9.40;;;4.50;99.90;;;;;;5030759;28;20113;-55
2024/03/09 04:07:59;;;;;;;22.38;10.05;;;4.50;99.90;;;;;;5031893;28;20813;-54
2024/03/09 04:10:24;;;;;;;18.02;9.40;;;4.50;99.90;;;;;;5031202;28;20384;-51
2024/03/09 04:12:50;;;;;;;21.98;10.35;;;4.60;99.90;;;;;;5027336;28;20041;-54
2024/03/09 04:15:16;;;;;;;19.52;9.73;;;4.50;99.90;;;;;;5029386;28;20401;-54
2024/03/09 04:17:42;;;;;;;19.05;10.43;;;4.50;99.90;;;;;;5031461;28;20042;-51
2024/03/09 04:20:09;;;;;;;22.08;9.80;;;4.50;99.90;;;;;;5033886;22;20042;-50
2024/03/09 04:22:35;;;;;;;18.92;9.93;;;4.50;99.90;;;;;;5011222;28;20845;-54
2024/03/09 04:25:08;;;;;;;18.38;9.23;;;4.40;99.90;;;;;;5014194;28;20029;-51
2024/03/09 04:27:34;;;;;;;15.93;8.40;;;4.40;99.90;;;;;;5015159;28;20062;-54
2024/03/09 04:30:01;;;;;;;18.75;9.43;;;4.40;99.90;;;;;;5023467;28;20077;-51
2024/03/09 04:32:27;;;;;;;19.65;9.57;;;4.40;99.90;;;;;;5031444;28;20060;-55
2024/03/09 04:34:53;;;;;;;18.35;8.70;;;4.40;99.90;;;;;;5030589;28;20057;-53
2024/03/09 04:37:25;;;;;;;25.08;10.40;;;4.40;99.90;;;;;;5030800;28;20120;-51
2024/03/09 04:39:58;;;;;;;21.42;9.95;;;4.50;99.90;;;;;;5027311;28;20038;-49
2024/03/09 04:42:25;;;;;;;19.42;10.05;;;4.40;99.90;;;;;;5031577;28;20079;-53
2024/03/09 04:44:53;;;;;;;21.77;10.02;;;4.40;99.90;;;;;;5030511;28;20025;-52
2024/03/09 04:47:19;;;;;;;25.20;9.98;;;4.40;99.90;;;;;;5032370;28;20379;-51
2024/03/09 04:49:47;;;;;;;20.08;10.15;;;4.40;99.90;;;;;;5031093;28;20041;-52
2024/03/09 04:52:13;;;;;;;18.70;9.52;;;4.30;99.90;;;;;;5028628;28;20036;-56
2024/03/09 04:54:43;;;;;;;17.88;9.50;;;4.30;99.90;;;;;;5025294;28;20029;-51
2024/03/09 04:57:11;;;;;;;26.23;11.30;;;4.30;99.90;;;;;;5026887;28;20105;-52
2024/03/09 04:59:39;;;;;;;24.23;10.38;;;4.30;99.90;;;;;;5030876;28;20056;-54
2024/03/09 05:02:05;;;;;;;18.90;9.57;;;4.30;99.90;;;;;;5030747;28;20088;-51
2024/03/09 05:04:30;;;;;;;18.27;8.90;;;4.30;99.90;;;;;;5031614;28;20574;-53
2024/03/09 05:06:56;;;;;;;23.17;11.25;;;4.40;99.90;;;;;;5027520;28;20121;-51
2024/03/09 05:09:24;;;;;;;21.25;10.48;;;4.30;99.90;;;;;;5030696;28;20018;-54
2024/03/09 05:11:50;;;;;;;25.52;10.75;;;4.30;99.90;;;;;;5030782;28;20098;-56
2024/03/09 05:14:15;;;;;;;17.33;8.77;;;4.30;99.90;;;;;;5029111;28;20109;-55
2024/03/09 05:16:43;;;;;;;19.15;9.43;;;4.30;99.90;;;;;;5011525;28;20170;-50
2024/03/09 05:19:09;;;;;;;20.23;10.43;;;4.30;99.90;;;;;;5030753;28;20031;-52
2024/03/09 05:21:36;;;;;;;19.08;9.48;;;4.30;99.90;;;;;;5030172;28;20156;-51
2024/03/09 05:24:03;;;;;;;17.95;8.90;;;4.40;99.90;;;;;;5030777;28;20021;-51
2024/03/09 05:26:32;;;;;;;21.55;10.20;;;4.30;99.90;;;;;;5030321;28;20032;-50
2024/03/09 05:29:00;;;;;;;19.25;10.05;;;4.40;99.90;;;;;;5033309;28;20021;-50
2024/03/09 05:31:27;;;;;;;21.90;9.75;;;4.40;99.90;;;;;;5030559;28;20040;-54
2024/03/09 05:33:53;;;;;;;21.17;9.52;;;4.40;99.90;;;;;;5030449;28;20030;-51
2024/03/09 05:36:19;;;;;;;23.40;10.40;;;4.40;99.90;;;;;;5030041;28;20024;-51
2024/03/09 05:38:48;;;;;;;26.65;12.00;;;4.40;99.90;;;;;;5030085;28;20038;-52
2024/03/09 05:41:15;;;;;;;22.08;10.10;;;4.40;99.90;;;;;;5030315;28;20116;-54
2024/03/09 05:43:43;;;;;;;22.17;10.65;;;4.40;99.90;;;;;;5029752;28;20091;-52
2024/03/09 05:46:09;;;;;;;25.00;10.60;;;4.40;99.90;;;;;;5031361;28;20029;-49
2024/03/09 05:48:36;;;;;;;21.58;10.15;;;4.40;99.90;;;;;;5030365;28;20029;-50
2024/03/09 05:51:01;;;;;;;22.15;10.60;;;4.50;99.90;;;;;;5029679;28;20032;-55
2024/03/09 05:53:27;;;;;;;20.17;9.13;;;4.50;99.90;;;;;;5012204;28;20033;-50
2024/03/09 05:55:53;;;;;;;21.55;10.00;;;4.50;99.90;;;;;;5027614;28;20030;-52
2024/03/09 05:58:25;;;;;;;22.15;10.00;;;4.60;99.90;;;;;;4998151;28;20408;-50
2024/03/09 06:00:51;;;;;;;24.38;10.98;;;4.60;99.90;;;;;;4998711;28;20559;-54
2024/03/09 06:03:16;;;;;;;20.70;11.15;;;4.60;99.90;;;;;;5003096;28;20054;-53
2024/03/09 06:05:42;;;;;;;19.48;9.40;;;4.60;99.90;;;;;;4999346;28;20471;-51
2024/03/09 06:08:08;;;;;;;23.00;10.48;;;4.60;99.90;;;;;;5012770;28;20037;-50
2024/03/09 06:10:33;;;;;;;20.58;10.20;;;4.60;99.90;;;;;;5019385;28;20439;-54
2024/03/09 06:12:59;;;;;;;20.65;9.75;;;4.60;99.90;;;;;;5022831;28;20045;-50
2024/03/09 06:15:25;;;;;;;18.35;9.02;;;4.60;99.90;;;;;;5021237;28;20115;-54
2024/03/09 06:17:53;;;;;;;23.55;10.23;;;4.70;99.90;;;;;;5024014;28;20026;-53
2024/03/09 06:20:20;;;;;;;22.60;10.20;;;4.70;99.90;;;;;;5016655;28;20040;-53
2024/03/09 06:22:46;;;;;;;23.98;10.43;;;4.70;99.90;;;;;;5022357;28;20080;-50
2024/03/09 06:25:19;;;;;;;18.63;10.13;;;4.70;99.90;;;;;;5011559;28;20456;-50
2024/03/09 06:27:45;;;;;;;20.50;8.85;;;4.70;99.90;;;;;;5016555;28;20026;-55
2024/03/09 06:30:15;;;;;;;19.42;9.57;;;4.70;99.90;;;;;;5039554;28;20029;-51
2024/03/09 06:32:44;;;;;;;22.15;10.98;;;4.70;99.90;;;;;;5013481;28;20041;-53
2024/03/09 06:35:10;;;;;;;23.85;10.65;;;4.80;99.90;;;;;;5023478;28;20033;-52
2024/03/09 06:37:36;;;;;;;26.42;10.77;;;4.80;99.90;;;;;;5011506;28;20050;-55
2024/03/09 06:40:05;;;;;;;22.50;9.52;;;4.80;99.90;;;;;;5012442;28;20035;-56
2024/03/09 06:42:30;;;;;;;22.45;9.98;;;4.80;99.90;;;;;;5011877;28;20511;-50
2024/03/09 06:44:56;;;;;;;21.38;10.32;;;4.90;99.90;;;;;;5021587;28;20034;-52
2024/03/09 06:47:22;;;;;;;17.63;9.50;;;4.80;99.90;;;;;;5018244;28;20109;-54
2024/03/09 06:49:48;;;;;;;20.60;10.60;;;4.80;99.90;;;;;;5002129;28;20102;-51
2024/03/09 06:52:15;;;;;;;23.05;9.38;;;4.90;99.90;;;;;;5014378;28;20490;-51
2024/03/09 06:54:41;;;;;;;19.88;10.23;;;4.90;99.90;;;;;;5021683;28;20384;-54
2024/03/09 06:57:09;;;;;;;19.27;8.73;;;5.00;99.90;;;;;;5013778;28;20034;-55
2024/03/09 06:59:40;;;;;;;21.10;10.48;;;5.00;99.90;;;;;;4989979;28;20542;-55
2024/03/09 07:02:06;;;;;;;21.13;10.27;;;5.10;99.90;;;;;;4995653;28;20095;-54
2024/03/09 07:04:32;;;;;;;22.75;11.02;;;5.20;99.90;;;;;;4997498;28;20469;-50
2024/03/09 07:06:57;;;;;;;22.13;10.32;;;5.20;99.90;;;;;;5006548;28;20041;-50
2024/03/09 07:09:23;;;;;;;21.42;9.45;;;5.30;99.90;;;;;;4990292;28;20038;-53
2024/03/09 07:11:52;;;;;;;19.10;9.93;;;5.40;99.90;;;;;;4997029;28;20038;-53
2024/03/09 07:14:18;;;;;;;20.48;9.23;;;5.70;99.90;;;;;;4988209;28;20028;-52
2024/03/09 07:16:45;;;;;;;18.30;9.20;;;6.10;99.90;;;;;;5003391;28;20117;-58
2024/03/09 07:19:10;;;;;;;19.42;9.55;;;6.80;99.90;;;;;;5013758;28;20442;-53
2024/03/09 07:21:36;;;;;;;18.50;9.30;;;7.00;99.90;;;;;;4990728;28;20102;-52
2024/03/09 07:24:02;;;;;;;17.95;9.02;;;7.20;99.90;;;;;;4998544;28;20037;-53
2024/03/09 07:26:27;;;;;;;19.13;9.57;;;6.90;99.90;;;;;;5012750;28;20105;-55
2024/03/09 07:28:54;;;;;;;18.27;8.93;;;6.80;99.90;;;;;;5007834;28;20520;-56
2024/03/09 07:31:22;;;;;;;20.20;9.77;;;6.70;99.90;;;;;;5006880;28;20557;-54
2024/03/09 07:33:50;;;;;;;21.05;9.63;;;6.60;99.90;;;;;;4998288;28;20141;-50
2024/03/09 07:36:17;;;;;;;16.60;8.80;;;6.50;99.90;;;;;;5016148;28;20457;-52
2024/03/09 07:38:45;;;;;;;21.23;9.98;;;6.40;99.90;;;;;;5006513;28;20031;-51
2024/03/09 07:41:11;;;;;;;17.67;9.10;;;6.50;99.90;;;;;;4994973;28;20019;-56
2024/03/09 07:43:38;;;;;;;23.00;9.70;;;6.50;99.90;;;;;;4980035;28;20059;-51
2024/03/09 07:46:04;;;;;;;19.27;9.50;;;6.40;99.90;;;;;;5003985;28;20497;-50
2024/03/09 07:48:30;;;;;;;17.75;9.32;;;6.40;99.90;;;;;;5004671;28;20051;-51
2024/03/09 07:50:56;;;;;;;21.65;9.32;;;6.30;99.90;;;;;;5003800;28;20054;-51
2024/03/09 07:53:22;;;;;;;19.38;9.90;;;6.20;99.90;;;;;;5018078;28;20051;-50
2024/03/09 07:55:47;;;;;;;17.08;8.90;;;6.20;99.90;;;;;;4990592;28;20068;-53
2024/03/09 07:58:13;;;;;;;18.25;8.65;;;6.40;99.90;;;;;;5018403;28;20039;-52
2024/03/09 08:00:38;;;;;;;18.83;9.07;;;6.50;99.90;;;;;;4981287;28;20031;-50
2024/03/09 08:03:05;;;;;;;19.40;9.32;;;6.70;99.90;;;;;;4977961;28;20391;-51
2024/03/09 08:05:31;;;;;;;15.75;7.90;;;6.80;99.90;;;;;;4973810;28;20034;-50
2024/03/09 08:08:02;;;;;;;18.42;8.55;;;6.90;99.90;;;;;;4980828;28;20052;-52
2024/03/09 08:10:28;;;;;;;15.63;8.40;;;7.00;99.90;;;;;;4981300;28;20038;-52
2024/03/09 08:12:56;;;;;;;17.27;9.25;;;7.00;99.90;;;;;;4986662;28;20038;-50
2024/03/09 08:15:22;;;;;;;19.95;8.77;;;7.00;99.90;;;;;;4978055;28;20035;-53
2024/03/09 08:17:48;;;;;;;19.75;10.25;;;7.10;99.90;;;;;;4990051;28;20172;-50
2024/03/09 08:20:15;;;;;;;17.67;8.80;;;7.00;99.90;;;;;;5000633;28;20465;-50
2024/03/09 08:22:42;;;;;;;19.23;8.88;;;7.00;99.90;;;;;;4997046;28;20050;-52
2024/03/09 08:25:11;;;;;;;19.90;8.95;;;7.10;99.90;;;;;;5005289;28;20027;-50
2024/03/09 08:27:38;;;;;;;22.23;9.15;;;7.10;99.90;;;;;;4991907;28;20034;-52
2024/03/09 08:30:07;;;;;;;16.60;8.55;;;7.10;99.90;;;;;;5008685;28;20031;-53
2024/03/09 08:32:36;;;;;;;18.52;8.82;;;7.10;99.90;;;;;;5003411;28;20029;-51
2024/03/09 08:35:08;;;;;;;21.05;9.90;;;7.10;99.90;;;;;;5007538;28;20060;-52
2024/03/09 08:37:41;;;;;;;17.67;9.30;;;7.10;99.90;;;;;;5004383;28;20032;-51
2024/03/09 08:40:16;;;;;;;15.88;8.68;;;7.20;99.90;;;;;;5007252;28;20042;-54
2024/03/09 08:42:51;;;;;;;21.35;9.93;;;7.20;99.90;;;;;;4981015;28;20093;-50
2024/03/09 08:45:21;;;;;;;19.88;9.77;;;7.20;99.90;;;;;;4982723;28;20028;-55
2024/03/09 08:47:50;;;;;;;18.20;9.35;;;7.30;99.90;;;;;;4997717;28;20119;-53
2024/03/09 08:50:21;;;;;;;20.90;8.80;;;7.30;99.90;;;;;;5011621;28;20128;-51
2024/03/09 08:52:47;;;;;;;20.15;10.10;;;7.40;99.90;;;;;;5002491;28;20483;-51
2024/03/09 08:55:14;;;;;;;20.80;9.02;;;7.50;99.90;;;;;;5006274;28;20062;-50
2024/03/09 08:57:46;;;;;;;15.93;8.43;;;7.50;99.90;;;;;;4996750;28;20022;-50
2024/03/09 09:00:12;;;;;;;22.42;9.68;;;7.60;99.90;;;;;;5012046;28;20062;-50
2024/03/09 09:02:38;;;;;;;16.88;9.07;;;7.70;99.90;;;;;;5006523;28;20026;-56
2024/03/09 09:05:11;;;;;;;17.90;8.57;;;7.70;99.90;;;;;;4990542;28;20033;-51
2024/03/09 09:07:40;;;;;;;17.98;9.65;;;7.80;99.90;;;;;;4987884;28;20026;-51
2024/03/09 09:10:14;;;;;;;22.30;9.75;;;7.80;99.90;;;;;;4971472;28;20043;-52
2024/03/09 09:12:41;;;;;;;14.27;7.45;;;8.00;99.90;;;;;;4977376;28;20488;-50
2024/03/09 09:15:11;;;;;;;18.23;9.60;;;8.10;99.90;;;;;;4990155;28;20037;-48
2024/03/09 09:17:36;;;;;;;16.02;8.40;;;8.30;99.90;;;;;;4988099;28;20039;-52
2024/03/09 09:20:04;;;;;;;18.92;8.93;;;8.50;99.90;;;;;;4976329;28;20691;-48
2024/03/09 09:22:31;;;;;;;19.15;8.32;;;9.50;99.90;;;;;;4987903;28;20134;-53
2024/03/09 09:24:57;;;;;;;17.48;8.75;;;10.00;99.90;;;;;;4993442;28;20470;-52
2024/03/09 09:27:26;;;;;;;17.70;8.95;;;10.60;99.90;;;;;;5004730;28;20162;-52
2024/03/09 09:29:52;;;;;;;14.68;8.00;;;11.10;99.30;;;;;;4988519;28;20038;-50
2024/03/09 09:32:19;;;;;;;16.90;8.65;;;11.30;99.40;;;;;;5009077;28;20038;-55
2024/03/09 09:34:45;;;;;;;15.55;8.57;;;11.70;98.60;;;;;;4999475;28;20499;-49
2024/03/09 09:37:12;;;;;;;15.43;8.57;;;12.00;97.70;;;;;;5008511;28;20049;-50
2024/03/09 09:39:38;;;;;;;16.75;8.73;;;12.40;97.00;;;;;;4991328;28;20101;-53
2024/03/09 09:42:04;;;;;;;17.63;9.18;;;12.20;96.90;;;;;;4986334;28;20054;-52
2024/03/09 09:44:30;;;;;;;16.13;9.20;;;12.50;97.30;;;;;;5007419;28;20024;-53
2024/03/09 09:46:56;;;;;;;16.35;9.68;;;12.70;97.20;;;;;;5002191;28;20034;-50
2024/03/09 09:49:22;;;;;;;15.50;8.43;;;12.90;97.00;;;;;;4999734;28;20025;-56
2024/03/09 09:51:51;;;;;;;14.10;7.82;;;13.10;96.30;;;;;;4988454;28;20042;-55
2024/03/09 09:54:24;;;;;;;15.13;8.80;;;13.10;96.10;;;;;;5002727;28;20054;-51
2024/03/09 09:56:53;;;;;;;14.90;8.75;;;13.00;96.20;;;;;;4986407;28;20023;-56
2024/03/09 09:59:19;;;;;;;16.63;10.10;;;13.10;95.30;;;;;;4998954;28;20035;-53
2024/03/09 10:01:44;;;;;;;15.38;8.80;;;12.90;95.80;;;;;;4992566;28;20393;-51
2024/03/09 10:04:10;;;;;;;16.45;7.88;;;13.00;96.10;;;;;;4996479;28;20116;-49
2024/03/09 10:06:36;;;;;;;16.45;8.55;;;12.80;95.30;;;;;;4999723;28;20587;-49
2024/03/09 10:09:02;;;;;;;15.05;8.13;;;12.60;96.40;;;;;;4979824;28;20031;-50
2024/03/09 10:11:31;;;;;;;17.30;9.38;;;12.80;95.80;;;;;;4993632;28;20030;-49
2024/03/09 10:13:59;;;;;;;16.55;8.65;;;12.70;95.80;;;;;;4994489;28;20030;-53
2024/03/09 10:16:29;;;;;;;16.98;8.40;;;12.90;95.80;;;;;;4986850;28;20034;-50
2024/03/09 10:18:56;;;;;;;14.65;8.85;;;13.30;95.80;;;;;;4992355;28;20021;-51
2024/03/09 10:21:37;;;;;;;17.80;9.10;;;13.10;95.40;;;;;;4999393;28;20385;-51
2024/03/09 10:24:04;;;;;;;17.58;9.85;;;13.00;95.90;;;;;;5003732;28;20018;-50
2024/03/09 10:26:30;;;;;;;14.85;8.27;;;12.70;96.10;;;;;;5009188;22;20075;-55
2024/03/09 10:29:00;;;;;;;19.70;9.32;;;12.40;96.40;;;;;;4965148;28;20026;-52
2024/03/09 10:31:26;;;;;;;17.10;9.25;;;12.10;96.70;;;;;;4964848;28;20444;-51
2024/03/09 10:33:56;;;;;;;20.05;9.40;;;12.00;96.90;;;;;;4958886;28;20019;-54
2024/03/09 10:36:25;;;;;;;19.35;9.52;;;11.80;97.50;;;;;;4965504;28;20570;-52
2024/03/09 10:38:54;;;;;;;16.83;8.55;;;11.80;97.80;;;;;;4964841;28;20407;-56
2024/03/09 10:41:22;;;;;;;16.23;8.48;;;11.90;97.70;;;;;;5001669;28;20031;-55
2024/03/09 10:43:49;;;;;;;15.50;8.38;;;12.00;98.10;;;;;;4963744;28;20085;-55
2024/03/09 10:46:20;;;;;;;17.98;9.60;;;12.00;97.80;;;;;;4969453;28;20173;-55
2024/03/09 10:48:53;;;;;;;16.60;9.60;;;12.10;97.50;;;;;;4968777;28;20396;-53
2024/03/09 10:51:36;;;;;;;17.20;9.57;;;12.00;97.40;;;;;;4970450;28;20019;-54
2024/03/09 10:54:09;;;;;;;14.75;8.23;;;11.90;97.60;;;;;;4968811;28;20053;-51
2024/03/09 10:56:38;;;;;;;15.23;8.18;;;12.10;98.10;;;;;;4968485;28;20108;-55
2024/03/09 10:59:09;;;;;;;17.75;9.23;;;12.20;97.70;;;;;;4966196;28;20032;-55
2024/03/09 11:01:35;;;;;;;18.08;8.45;;;12.30;97.30;;;;;;4966679;28;20034;-54
2024/03/09 11:04:04;;;;;;;18.05;9.07;;;12.20;97.20;;;;;;4967122;28;20019;-55
2024/03/09 11:06:30;;;;;;;16.45;8.07;;;12.20;97.60;;;;;;4968498;28;20039;-57
2024/03/09 11:08:59;;;;;;;15.60;8.27;;;12.20;97.60;;;;;;4981384;28;20033;-55
2024/03/09 11:11:27;;;;;;;18.60;9.00;;;12.30;97.60;;;;;;4974556;28;20043;-56
2024/03/09 11:13:53;;;;;;;16.38;8.65;;;12.30;97.80;;;;;;4968233;28;20484;-52
2024/03/09 11:16:20;;;;;;;13.77;8.05;;;12.30;97.70;;;;;;4965267;28;20408;-55
2024/03/09 11:18:50;;;;;;;16.30;8.35;;;12.60;98.10;;;;;;4967309;28;20030;-52
2024/03/09 11:21:48;;;;;;;13.15;7.38;;;12.60;97.40;;;;;;4965083;28;20118;-51
2024/03/09 11:24:14;;;;;;;14.60;7.60;;;12.70;97.40;;;;;;4974704;28;20039;-53
2024/03/09 11:26:52;;;;;;;14.65;8.40;;;12.80;96.90;;;;;;4967325;28;20175;-57
2024/03/09 11:29:22;;;;;;;14.98;7.53;;;12.80;97.00;;;;;;4960100;28;20046;-54
2024/03/09 11:31:50;;;;;;;15.95;8.25;;;12.80;96.70;;;;;;4965870;28;20049;-53
2024/03/09 11:34:21;;;;;;;14.48;7.60;;;12.70;96.50;;;;;;4973818;28;20130;-52
2024/03/09 11:36:50;;;;;;;15.90;7.72;;;12.60;97.20;;;;;;5048424;28;20056;-53
2024/03/09 11:39:17;;;;;;;14.85;8.05;;;12.70;97.40;;;;;;5048964;28;20033;-56
2024/03/09 11:41:45;;;;;;;14.32;7.30;;;12.80;97.40;;;;;;5050431;28;20105;-55
2024/03/09 11:44:13;;;;;;;14.00;8.18;;;12.70;97.00;;;;;;5046015;28;20028;-53
2024/03/09 11:46:39;;;;;;;14.65;7.40;;;12.80;97.10;;;;;;5043543;28;20033;-54
2024/03/09 11:49:06;;;;;;;19.83;8.30;;;12.90;97.10;;;;;;5046694;28;20121;-58
2024/03/09 11:51:33;;;;;;;17.42;7.72;;;12.90;96.50;;;;;;5048149;28;20787;-52
2024/03/09 11:54:11;;;;;;;13.75;7.75;;;12.80;96.90;;;;;;5050354;28;20025;-54
2024/03/09 11:56:41;;;;;;;19.15;8.18;;;12.80;96.70;;;;;;5048794;28;20044;-53
2024/03/09 11:59:10;;;;;;;15.55;8.23;;;12.80;97.30;;;;;;5049619;28;20041;-52
2024/03/09 12:01:36;;;;;;;16.98;7.68;;;12.90;97.50;;;;;;5047115;28;20041;-55
2024/03/09 12:04:04;;;;;;;16.92;7.78;;;12.90;96.90;;;;;;5046168;28;20044;-54
2024/03/09 12:06:29;;;;;;;15.88;6.75;;;12.90;96.50;;;;;;5048436;28;20020;-52
2024/03/09 12:08:55;;;;;;;19.00;8.90;;;12.80;97.30;;;;;;5045727;28;20597;-54
2024/03/09 12:11:30;;;;;;;18.25;7.97;;;12.90;97.30;;;;;;5046033;28;20028;-56
2024/03/09 12:13:56;;;;;;;14.85;8.35;;;13.00;97.50;;;;;;5051380;28;20025;-54
2024/03/09 12:16:26;;;;;;;14.23;8.23;;;13.00;96.80;;;;;;5048725;28;20079;-52
2024/03/09 12:18:54;;;;;;;15.00;7.68;;;13.10;97.20;;;;;;5046596;28;20018;-54
2024/03/09 12:21:21;;;;;;;15.70;7.97;;;13.20;97.00;;;;;;5050000;28;20060;-54
2024/03/09 12:23:54;;;;;;;14.25;7.65;;;13.10;96.60;;;;;;5049969;28;20044;-55
2024/03/09 12:26:23;;;;;;;11.80;6.75;;;13.10;96.60;;;;;;5044593;28;20089;-54
2024/03/09 12:28:49;;;;;;;13.25;8.05;;;13.10;96.90;;;;;;5045146;28;20052;-51
2024/03/09 12:31:15;;;;;;;13.50;6.85;;;13.20;97.10;;;;;;5041688;28;20043;-52
2024/03/09 12:33:43;;;;;;;12.05;6.43;;;13.20;96.60;;;;;;5042349;28;20021;-56
2024/03/09 12:36:15;;;;;;;11.48;6.57;;;13.20;96.70;;;;;;5036393;28;20135;-55
2024/03/09 12:38:40;;;;;;;12.23;6.70;;;13.30;96.20;;;;;;5047471;28;20033;-55
2024/03/09 12:41:23;;;;;;;12.85;6.70;;;13.30;96.50;;;;;;5043457;28;20099;-56
2024/03/09 12:43:49;;;;;;;14.52;7.90;;;13.30;96.90;;;;;;5048704;28;20036;-56